sensor_id;sensor_type;location;lat;lon;timestamp;temperature;humidity
67093;SHT31;54011;50.772;7.730;2022-09-09T00:01:28;16.02;86.07
67093;SHT31;54011;50.772;7.730;2022-09-09T00:06:24;16.07;85.30
67093;SHT31;54011;50.772;7.730;2022-09-09T00:09:04;16.03;85.39
67093;SHT31;54011;50.772;7.730;2022-09-09T00:11:51;15.95;85.70
67093;SHT31;54011;50.772;7.730;2022-09-09T00:14:30;15.97;85.07
67093;SHT31;54011;50.772;7.730;2022-09-09T00:17:03;15.96;85.15
67093;SHT31;54011;50.772;7.730;2022-09-09T00:19:40;16.03;85.08
67093;SHT31;54011;50.772;7.730;2022-09-09T00:22:19;16.06;85.07
67093;SHT31;54011;50.772;7.730;2022-09-09T00:24:53;16.06;85.10
67093;SHT31;54011;50.772;7.730;2022-09-09T00:27:25;16.05;85.07
67093;SHT31;54011;50.772;7.730;2022-09-09T00:30:12;16.09;85.32
67093;SHT31;54011;50.772;7.730;2022-09-09T00:32:39;16.00;85.61
67093;SHT31;54011;50.772;7.730;2022-09-09T00:35:16;16.10;84.81
67093;SHT31;54011;50.772;7.730;2022-09-09T00:37:45;16.12;85.15
67093;SHT31;54011;50.772;7.730;2022-09-09T00:40:31;16.13;85.47
67093;SHT31;54011;50.772;7.730;2022-09-09T00:45:47;15.87;87.17
67093;SHT31;54011;50.772;7.730;2022-09-09T00:48:16;15.69;87.93
67093;SHT31;54011;50.772;7.730;2022-09-09T00:50:59;15.56;88.30
67093;SHT31;54011;50.772;7.730;2022-09-09T00:56:13;15.42;88.74
67093;SHT31;54011;50.772;7.730;2022-09-09T00:59:12;15.32;89.03
67093;SHT31;54011;50.772;7.730;2022-09-09T01:01:40;15.35;88.82
67093;SHT31;54011;50.772;7.730;2022-09-09T01:04:14;15.36;88.48
67093;SHT31;54011;50.772;7.730;2022-09-09T01:06:43;15.41;88.02
67093;SHT31;54011;50.772;7.730;2022-09-09T01:09:23;15.48;87.85
67093;SHT31;54011;50.772;7.730;2022-09-09T01:12:16;15.42;88.00
67093;SHT31;54011;50.772;7.730;2022-09-09T01:14:48;15.49;87.71
67093;SHT31;54011;50.772;7.730;2022-09-09T01:17:30;15.51;87.52
67093;SHT31;54011;50.772;7.730;2022-09-09T01:20:14;15.52;87.55
67093;SHT31;54011;50.772;7.730;2022-09-09T01:28:26;15.63;86.70
67093;SHT31;54011;50.772;7.730;2022-09-09T01:30:57;15.63;87.04
67093;SHT31;54011;50.772;7.730;2022-09-09T01:33:24;15.65;86.63
67093;SHT31;54011;50.772;7.730;2022-09-09T01:38:37;15.65;86.55
67093;SHT31;54011;50.772;7.730;2022-09-09T01:41:04;15.65;86.65
67093;SHT31;54011;50.772;7.730;2022-09-09T01:43:40;15.66;86.45
67093;SHT31;54011;50.772;7.730;2022-09-09T01:46:06;15.67;86.42
67093;SHT31;54011;50.772;7.730;2022-09-09T01:48:33;15.69;86.51
67093;SHT31;54011;50.772;7.730;2022-09-09T01:51:02;15.76;86.18
67093;SHT31;54011;50.772;7.730;2022-09-09T01:53:27;15.85;85.69
67093;SHT31;54011;50.772;7.730;2022-09-09T01:56:18;15.87;85.45
67093;SHT31;54011;50.772;7.730;2022-09-09T02:02:01;15.81;85.66
67093;SHT31;54011;50.772;7.730;2022-09-09T02:04:40;15.81;85.85
67093;SHT31;54011;50.772;7.730;2022-09-09T02:07:25;15.85;85.83
67093;SHT31;54011;50.772;7.730;2022-09-09T02:10:02;15.85;85.87
67093;SHT31;54011;50.772;7.730;2022-09-09T02:12:31;15.86;85.60
67093;SHT31;54011;50.772;7.730;2022-09-09T02:15:03;15.89;85.73
67093;SHT31;54011;50.772;7.730;2022-09-09T02:17:37;15.82;85.92
67093;SHT31;54011;50.772;7.730;2022-09-09T02:20:12;15.79;85.96
67093;SHT31;54011;50.772;7.730;2022-09-09T02:22:55;15.89;85.77
67093;SHT31;54011;50.772;7.730;2022-09-09T02:25:24;15.93;85.54
67093;SHT31;54011;50.772;7.730;2022-09-09T02:27:53;15.93;85.45
67093;SHT31;54011;50.772;7.730;2022-09-09T02:30:20;15.97;85.75
67093;SHT31;54011;50.772;7.730;2022-09-09T02:32:54;15.96;86.10
67093;SHT31;54011;50.772;7.730;2022-09-09T02:35:26;15.93;85.77
67093;SHT31;54011;50.772;7.730;2022-09-09T02:37:59;15.96;85.89
67093;SHT31;54011;50.772;7.730;2022-09-09T02:40:24;15.97;85.23
67093;SHT31;54011;50.772;7.730;2022-09-09T02:42:57;15.90;85.49
67093;SHT31;54011;50.772;7.730;2022-09-09T02:45:30;15.85;85.67
67093;SHT31;54011;50.772;7.730;2022-09-09T02:48:07;15.90;85.58
67093;SHT31;54011;50.772;7.730;2022-09-09T02:50:41;15.92;85.82
67093;SHT31;54011;50.772;7.730;2022-09-09T02:53:17;15.97;85.54
67093;SHT31;54011;50.772;7.730;2022-09-09T02:55:56;15.87;85.86
67093;SHT31;54011;50.772;7.730;2022-09-09T02:58:23;15.81;86.13
67093;SHT31;54011;50.772;7.730;2022-09-09T03:00:59;15.81;86.18
67093;SHT31;54011;50.772;7.730;2022-09-09T03:03:28;15.87;85.65
67093;SHT31;54011;50.772;7.730;2022-09-09T03:05:54;15.87;85.55
67093;SHT31;54011;50.772;7.730;2022-09-09T03:08:20;15.83;85.65
67093;SHT31;54011;50.772;7.730;2022-09-09T03:10:46;15.90;85.47
67093;SHT31;54011;50.772;7.730;2022-09-09T03:13:14;15.92;85.62
67093;SHT31;54011;50.772;7.730;2022-09-09T03:15:40;15.90;85.30
67093;SHT31;54011;50.772;7.730;2022-09-09T03:18:09;15.90;85.45
67093;SHT31;54011;50.772;7.730;2022-09-09T03:20:34;15.93;85.79
67093;SHT31;54011;50.772;7.730;2022-09-09T03:23:00;15.96;85.08
67093;SHT31;54011;50.772;7.730;2022-09-09T03:25:27;15.97;84.98
67093;SHT31;54011;50.772;7.730;2022-09-09T03:27:54;16.06;84.84
67093;SHT31;54011;50.772;7.730;2022-09-09T03:30:22;16.10;84.86
67093;SHT31;54011;50.772;7.730;2022-09-09T03:32:48;16.13;84.67
67093;SHT31;54011;50.772;7.730;2022-09-09T03:35:14;16.09;84.31
67093;SHT31;54011;50.772;7.730;2022-09-09T03:37:40;16.13;84.64
67093;SHT31;54011;50.772;7.730;2022-09-09T03:40:07;16.20;84.21
67093;SHT31;54011;50.772;7.730;2022-09-09T03:42:35;16.10;84.44
67093;SHT31;54011;50.772;7.730;2022-09-09T03:45:06;16.21;84.42
67093;SHT31;54011;50.772;7.730;2022-09-09T03:47:33;16.21;83.91
67093;SHT31;54011;50.772;7.730;2022-09-09T03:50:05;16.18;84.18
67093;SHT31;54011;50.772;7.730;2022-09-09T03:52:38;16.12;84.35
67093;SHT31;54011;50.772;7.730;2022-09-09T03:55:07;16.16;84.42
67093;SHT31;54011;50.772;7.730;2022-09-09T03:57:35;16.10;84.50
67093;SHT31;54011;50.772;7.730;2022-09-09T04:00:03;16.16;84.69
67093;SHT31;54011;50.772;7.730;2022-09-09T04:02:31;16.16;84.93
67093;SHT31;54011;50.772;7.730;2022-09-09T04:04:56;16.13;84.94
67093;SHT31;54011;50.772;7.730;2022-09-09T04:07:22;16.21;84.59
67093;SHT31;54011;50.772;7.730;2022-09-09T04:09:48;16.21;84.68
67093;SHT31;54011;50.772;7.730;2022-09-09T04:12:14;16.27;84.24
67093;SHT31;54011;50.772;7.730;2022-09-09T04:14:39;16.24;84.51
67093;SHT31;54011;50.772;7.730;2022-09-09T04:17:06;16.20;84.25
67093;SHT31;54011;50.772;7.730;2022-09-09T04:19:33;16.24;85.17
67093;SHT31;54011;50.772;7.730;2022-09-09T04:21:58;16.18;84.63
67093;SHT31;54011;50.772;7.730;2022-09-09T04:24:24;16.20;84.54
67093;SHT31;54011;50.772;7.730;2022-09-09T04:26:53;16.24;84.76
67093;SHT31;54011;50.772;7.730;2022-09-09T04:29:19;16.26;84.56
67093;SHT31;54011;50.772;7.730;2022-09-09T04:31:44;16.24;84.95
67093;SHT31;54011;50.772;7.730;2022-09-09T04:34:10;16.14;85.06
67093;SHT31;54011;50.772;7.730;2022-09-09T04:36:35;16.26;84.86
67093;SHT31;54011;50.772;7.730;2022-09-09T04:39:03;16.20;85.40
67093;SHT31;54011;50.772;7.730;2022-09-09T04:41:29;16.13;85.26
67093;SHT31;54011;50.772;7.730;2022-09-09T04:43:56;16.16;85.08
67093;SHT31;54011;50.772;7.730;2022-09-09T04:46:22;16.20;85.16
67093;SHT31;54011;50.772;7.730;2022-09-09T04:48:49;16.17;85.06
67093;SHT31;54011;50.772;7.730;2022-09-09T04:51:17;16.07;85.53
67093;SHT31;54011;50.772;7.730;2022-09-09T04:53:45;16.23;85.23
67093;SHT31;54011;50.772;7.730;2022-09-09T04:56:17;16.24;85.39
67093;SHT31;54011;50.772;7.730;2022-09-09T04:58:50;16.21;84.86
67093;SHT31;54011;50.772;7.730;2022-09-09T05:01:18;16.24;85.34
67093;SHT31;54011;50.772;7.730;2022-09-09T05:03:45;16.20;85.29
67093;SHT31;54011;50.772;7.730;2022-09-09T05:06:15;16.21;85.36
67093;SHT31;54011;50.772;7.730;2022-09-09T05:08:42;16.24;84.79
67093;SHT31;54011;50.772;7.730;2022-09-09T05:13:48;16.17;85.34
67093;SHT31;54011;50.772;7.730;2022-09-09T05:16:17;16.16;84.81
67093;SHT31;54011;50.772;7.730;2022-09-09T05:18:44;16.16;84.64
67093;SHT31;54011;50.772;7.730;2022-09-09T05:21:13;16.16;84.76
67093;SHT31;54011;50.772;7.730;2022-09-09T05:23:39;16.14;85.01
67093;SHT31;54011;50.772;7.730;2022-09-09T05:26:06;16.21;84.84
67093;SHT31;54011;50.772;7.730;2022-09-09T05:28:36;16.23;84.38
67093;SHT31;54011;50.772;7.730;2022-09-09T05:31:04;16.31;84.21
67093;SHT31;54011;50.772;7.730;2022-09-09T05:33:31;16.38;83.67
67093;SHT31;54011;50.772;7.730;2022-09-09T05:36:04;16.34;83.41
67093;SHT31;54011;50.772;7.730;2022-09-09T05:38:31;16.33;83.91
67093;SHT31;54011;50.772;7.730;2022-09-09T05:40:58;16.35;83.42
67093;SHT31;54011;50.772;7.730;2022-09-09T05:43:24;16.44;83.17
67093;SHT31;54011;50.772;7.730;2022-09-09T05:48:35;16.51;82.69
67093;SHT31;54011;50.772;7.730;2022-09-09T05:51:01;16.54;82.73
67093;SHT31;54011;50.772;7.730;2022-09-09T05:53:28;16.30;82.86
67093;SHT31;54011;50.772;7.730;2022-09-09T05:55:59;16.35;82.85
67093;SHT31;54011;50.772;7.730;2022-09-09T05:58:26;16.44;82.68
67093;SHT31;54011;50.772;7.730;2022-09-09T06:00:52;16.44;82.54
67093;SHT31;54011;50.772;7.730;2022-09-09T06:03:19;16.43;82.81
67093;SHT31;54011;50.772;7.730;2022-09-09T06:05:57;16.50;82.20
67093;SHT31;54011;50.772;7.730;2022-09-09T06:08:23;16.67;81.75
67093;SHT31;54011;50.772;7.730;2022-09-09T06:10:49;16.68;81.23
67093;SHT31;54011;50.772;7.730;2022-09-09T06:13:14;16.78;81.10
67093;SHT31;54011;50.772;7.730;2022-09-09T06:15:49;16.78;81.22
67093;SHT31;54011;50.772;7.730;2022-09-09T06:18:15;16.68;81.66
67093;SHT31;54011;50.772;7.730;2022-09-09T06:20:43;16.61;82.20
67093;SHT31;54011;50.772;7.730;2022-09-09T06:23:08;16.79;80.98
67093;SHT31;54011;50.772;7.730;2022-09-09T06:25:35;16.85;81.14
67093;SHT31;54011;50.772;7.730;2022-09-09T06:28:01;17.01;80.63
67093;SHT31;54011;50.772;7.730;2022-09-09T06:30:28;17.06;80.14
67093;SHT31;54011;50.772;7.730;2022-09-09T06:32:55;17.15;79.68
67093;SHT31;54011;50.772;7.730;2022-09-09T06:35:23;17.27;79.68
67093;SHT31;54011;50.772;7.730;2022-09-09T06:37:48;17.37;79.17
67093;SHT31;54011;50.772;7.730;2022-09-09T06:40:14;17.36;79.43
67093;SHT31;54011;50.772;7.730;2022-09-09T06:42:40;17.19;79.69
67093;SHT31;54011;50.772;7.730;2022-09-09T06:45:20;17.51;79.14
67093;SHT31;54011;50.772;7.730;2022-09-09T06:47:55;17.47;78.72
67093;SHT31;54011;50.772;7.730;2022-09-09T06:50:21;17.33;79.24
67093;SHT31;54011;50.772;7.730;2022-09-09T06:52:49;17.33;79.01
67093;SHT31;54011;50.772;7.730;2022-09-09T06:55:15;17.35;79.03
67093;SHT31;54011;50.772;7.730;2022-09-09T06:57:42;17.30;79.41
67093;SHT31;54011;50.772;7.730;2022-09-09T07:00:14;17.06;80.00
67093;SHT31;54011;50.772;7.730;2022-09-09T07:02:43;17.20;79.21
67093;SHT31;54011;50.772;7.730;2022-09-09T07:05:13;17.19;79.74
67093;SHT31;54011;50.772;7.730;2022-09-09T07:07:40;17.37;79.26
67093;SHT31;54011;50.772;7.730;2022-09-09T07:10:07;17.81;77.68
67093;SHT31;54011;50.772;7.730;2022-09-09T07:12:35;18.29;76.42
67093;SHT31;54011;50.772;7.730;2022-09-09T07:15:01;18.39;75.63
67093;SHT31;54011;50.772;7.730;2022-09-09T07:17:27;18.48;75.17
67093;SHT31;54011;50.772;7.730;2022-09-09T07:19:53;18.55;74.98
67093;SHT31;54011;50.772;7.730;2022-09-09T07:22:20;18.32;75.28
67093;SHT31;54011;50.772;7.730;2022-09-09T07:24:45;18.09;75.35
67093;SHT31;54011;50.772;7.730;2022-09-09T07:27:12;17.97;75.19
67093;SHT31;54011;50.772;7.730;2022-09-09T07:29:39;18.28;74.84
67093;SHT31;54011;50.772;7.730;2022-09-09T07:32:04;18.26;74.54
67093;SHT31;54011;50.772;7.730;2022-09-09T07:34:34;18.11;75.30
67093;SHT31;54011;50.772;7.730;2022-09-09T07:36:59;18.36;73.82
67093;SHT31;54011;50.772;7.730;2022-09-09T07:39:24;18.46;73.40
67093;SHT31;54011;50.772;7.730;2022-09-09T07:41:52;18.39;74.03
67093;SHT31;54011;50.772;7.730;2022-09-09T07:44:23;18.21;73.72
67093;SHT31;54011;50.772;7.730;2022-09-09T07:46:56;18.16;72.66
67093;SHT31;54011;50.772;7.730;2022-09-09T07:49:27;18.05;72.11
67093;SHT31;54011;50.772;7.730;2022-09-09T07:51:53;18.31;71.52
67093;SHT31;54011;50.772;7.730;2022-09-09T07:54:19;18.38;71.27
67093;SHT31;54011;50.772;7.730;2022-09-09T07:56:50;18.00;72.21
67093;SHT31;54011;50.772;7.730;2022-09-09T07:59:16;18.19;71.56
67093;SHT31;54011;50.772;7.730;2022-09-09T08:01:47;18.06;72.18
67093;SHT31;54011;50.772;7.730;2022-09-09T08:04:18;18.55;71.07
67093;SHT31;54011;50.772;7.730;2022-09-09T08:06:48;19.36;68.56
67093;SHT31;54011;50.772;7.730;2022-09-09T08:09:16;19.81;66.60
67093;SHT31;54011;50.772;7.730;2022-09-09T08:11:43;19.93;66.78
67093;SHT31;54011;50.772;7.730;2022-09-09T08:14:10;19.59;67.69
67093;SHT31;54011;50.772;7.730;2022-09-09T08:16:42;19.35;68.57
67093;SHT31;54011;50.772;7.730;2022-09-09T08:19:09;19.35;68.20
67093;SHT31;54011;50.772;7.730;2022-09-09T08:21:37;19.57;67.87
67093;SHT31;54011;50.772;7.730;2022-09-09T08:24:05;19.44;67.83
67093;SHT31;54011;50.772;7.730;2022-09-09T08:26:34;19.89;64.14
67093;SHT31;54011;50.772;7.730;2022-09-09T08:29:01;20.08;64.30
67093;SHT31;54011;50.772;7.730;2022-09-09T08:31:33;20.98;62.16
67093;SHT31;54011;50.772;7.730;2022-09-09T08:34:00;20.53;63.10
67093;SHT31;54011;50.772;7.730;2022-09-09T08:36:28;20.88;62.53
67093;SHT31;54011;50.772;7.730;2022-09-09T08:38:56;21.19;60.67
67093;SHT31;54011;50.772;7.730;2022-09-09T08:50:38;20.87;61.84
67093;SHT31;54011;50.772;7.730;2022-09-09T08:53:13;20.36;63.25
67093;SHT31;54011;50.772;7.730;2022-09-09T08:55:50;20.22;62.21
67093;SHT31;54011;50.772;7.730;2022-09-09T08:58:24;19.93;63.24
67093;SHT31;54011;50.772;7.730;2022-09-09T09:07:00;19.72;62.78
67093;SHT31;54011;50.772;7.730;2022-09-09T09:09:38;19.76;63.18
67093;SHT31;54011;50.772;7.730;2022-09-09T09:12:20;20.23;61.97
67093;SHT31;54011;50.772;7.730;2022-09-09T09:14:48;21.41;58.34
67093;SHT31;54011;50.772;7.730;2022-09-09T09:17:18;21.23;58.29
67093;SHT31;54011;50.772;7.730;2022-09-09T09:19:47;21.12;58.95
67093;SHT31;54011;50.772;7.730;2022-09-09T09:25:01;20.19;61.82
67093;SHT31;54011;50.772;7.730;2022-09-09T09:27:44;19.89;62.19
67093;SHT31;54011;50.772;7.730;2022-09-09T09:32:46;21.09;59.53
67093;SHT31;54011;50.772;7.730;2022-09-09T09:35:14;20.78;59.36
67093;SHT31;54011;50.772;7.730;2022-09-09T09:37:41;20.33;60.15
67093;SHT31;54011;50.772;7.730;2022-09-09T09:40:10;20.51;59.47
67093;SHT31;54011;50.772;7.730;2022-09-09T09:42:36;21.56;56.87
67093;SHT31;54011;50.772;7.730;2022-09-09T09:45:27;21.08;57.51
67093;SHT31;54011;50.772;7.730;2022-09-09T09:48:04;20.37;60.04
67093;SHT31;54011;50.772;7.730;2022-09-09T09:50:32;19.92;62.44
67093;SHT31;54011;50.772;7.730;2022-09-09T09:53:01;19.90;62.09
67093;SHT31;54011;50.772;7.730;2022-09-09T09:55:32;20.24;60.66
67093;SHT31;54011;50.772;7.730;2022-09-09T09:58:02;20.20;61.17
67093;SHT31;54011;50.772;7.730;2022-09-09T10:00:28;20.14;60.61
67093;SHT31;54011;50.772;7.730;2022-09-09T10:03:01;21.16;56.91
67093;SHT31;54011;50.772;7.730;2022-09-09T10:05:31;21.43;57.39
67093;SHT31;54011;50.772;7.730;2022-09-09T10:13:17;21.83;55.94
67093;SHT31;54011;50.772;7.730;2022-09-09T10:18:52;21.42;55.31
67093;SHT31;54011;50.772;7.730;2022-09-09T10:29:32;20.47;57.87
67093;SHT31;54011;50.772;7.730;2022-09-09T10:32:36;20.32;59.36
67093;SHT31;54011;50.772;7.730;2022-09-09T10:35:35;20.58;58.13
67093;SHT31;54011;50.772;7.730;2022-09-09T10:38:21;20.80;57.62
67093;SHT31;54011;50.772;7.730;2022-09-09T10:49:03;20.47;57.31
67093;SHT31;54011;50.772;7.730;2022-09-09T10:54:42;20.80;56.57
67093;SHT31;54011;50.772;7.730;2022-09-09T10:57:31;21.09;56.31
67093;SHT31;54011;50.772;7.730;2022-09-09T11:00:03;21.60;54.95
67093;SHT31;54011;50.772;7.730;2022-09-09T11:02:32;21.62;55.17
67093;SHT31;54011;50.772;7.730;2022-09-09T11:05:08;23.53;50.59
67093;SHT31;54011;50.772;7.730;2022-09-09T11:10:48;23.77;50.55
67093;SHT31;54011;50.772;7.730;2022-09-09T11:19:31;22.92;50.73
67093;SHT31;54011;50.772;7.730;2022-09-09T11:22:03;22.99;51.64
67093;SHT31;54011;50.772;7.730;2022-09-09T11:24:35;23.26;50.89
67093;SHT31;54011;50.772;7.730;2022-09-09T11:27:15;24.66;47.43
67093;SHT31;54011;50.772;7.730;2022-09-09T11:30:10;24.26;47.33
67093;SHT31;54011;50.772;7.730;2022-09-09T11:33:04;24.55;46.77
67093;SHT31;54011;50.772;7.730;2022-09-09T11:38:44;25.61;45.38
67093;SHT31;54011;50.772;7.730;2022-09-09T11:41:11;24.92;46.01
67093;SHT31;54011;50.772;7.730;2022-09-09T11:43:42;24.40;47.35
67093;SHT31;54011;50.772;7.730;2022-09-09T11:46:08;25.21;46.36
67093;SHT31;54011;50.772;7.730;2022-09-09T11:48:40;25.52;44.29
67093;SHT31;54011;50.772;7.730;2022-09-09T11:51:25;23.02;48.95
67093;SHT31;54011;50.772;7.730;2022-09-09T11:53:53;22.86;49.35
67093;SHT31;54011;50.772;7.730;2022-09-09T11:56:34;22.40;49.47
67093;SHT31;54011;50.772;7.730;2022-09-09T11:59:20;21.94;50.96
67093;SHT31;54011;50.772;7.730;2022-09-09T12:07:01;23.17;48.42
67093;SHT31;54011;50.772;7.730;2022-09-09T12:09:39;22.61;50.17
67093;SHT31;54011;50.772;7.730;2022-09-09T12:17:24;22.05;51.74
67093;SHT31;54011;50.772;7.730;2022-09-09T12:31:41;25.07;46.25
67093;SHT31;54011;50.772;7.730;2022-09-09T12:34:16;22.63;51.06
67093;SHT31;54011;50.772;7.730;2022-09-09T12:36:43;24.04;47.99
67093;SHT31;54011;50.772;7.730;2022-09-09T12:39:27;22.71;51.08
67093;SHT31;54011;50.772;7.730;2022-09-09T12:41:55;24.70;46.37
67093;SHT31;54011;50.772;7.730;2022-09-09T12:44:22;24.81;45.98
67093;SHT31;54011;50.772;7.730;2022-09-09T12:46:49;24.97;45.06
67093;SHT31;54011;50.772;7.730;2022-09-09T12:51:54;24.84;43.65
67093;SHT31;54011;50.772;7.730;2022-09-09T12:54:19;25.73;42.99
67093;SHT31;54011;50.772;7.730;2022-09-09T12:56:47;26.44;41.73
67093;SHT31;54011;50.772;7.730;2022-09-09T12:59:25;26.27;42.32
67093;SHT31;54011;50.772;7.730;2022-09-09T13:01:58;27.03;40.18
67093;SHT31;54011;50.772;7.730;2022-09-09T13:04:24;27.63;38.69
67093;SHT31;54011;50.772;7.730;2022-09-09T13:06:50;28.00;39.78
67093;SHT31;54011;50.772;7.730;2022-09-09T13:09:17;26.68;39.00
67093;SHT31;54011;50.772;7.730;2022-09-09T13:11:53;23.70;44.19
67093;SHT31;54011;50.772;7.730;2022-09-09T13:14:33;23.16;45.89
67093;SHT31;54011;50.772;7.730;2022-09-09T13:17:04;23.16;46.18
67093;SHT31;54011;50.772;7.730;2022-09-09T13:19:34;22.86;47.99
67093;SHT31;54011;50.772;7.730;2022-09-09T13:22:20;22.32;48.93
67093;SHT31;54011;50.772;7.730;2022-09-09T13:24:47;21.98;49.27
67093;SHT31;54011;50.772;7.730;2022-09-09T13:27:38;22.20;49.67
67093;SHT31;54011;50.772;7.730;2022-09-09T13:30:29;22.04;49.98
67093;SHT31;54011;50.772;7.730;2022-09-09T13:33:02;21.79;50.49
67093;SHT31;54011;50.772;7.730;2022-09-09T13:35:29;21.91;49.78
67093;SHT31;54011;50.772;7.730;2022-09-09T13:37:55;21.91;50.29
67093;SHT31;54011;50.772;7.730;2022-09-09T13:40:22;22.10;51.10
67093;SHT31;54011;50.772;7.730;2022-09-09T13:42:52;21.63;51.09
67093;SHT31;54011;50.772;7.730;2022-09-09T13:45:22;21.98;50.46
67093;SHT31;54011;50.772;7.730;2022-09-09T13:47:49;21.90;50.73
67093;SHT31;54011;50.772;7.730;2022-09-09T13:50:28;22.18;50.27
67093;SHT31;54011;50.772;7.730;2022-09-09T13:52:58;22.10;50.85
67093;SHT31;54011;50.772;7.730;2022-09-09T13:55:26;22.14;50.53
67093;SHT31;54011;50.772;7.730;2022-09-09T13:57:58;22.03;49.71
67093;SHT31;54011;50.772;7.730;2022-09-09T14:00:25;21.76;51.41
67093;SHT31;54011;50.772;7.730;2022-09-09T14:02:51;21.69;51.42
67093;SHT31;54011;50.772;7.730;2022-09-09T14:05:18;21.42;50.89
67093;SHT31;54011;50.772;7.730;2022-09-09T14:07:44;21.45;51.71
67093;SHT31;54011;50.772;7.730;2022-09-09T14:10:10;21.29;51.87
67093;SHT31;54011;50.772;7.730;2022-09-09T14:12:35;21.31;52.46
67093;SHT31;54011;50.772;7.730;2022-09-09T14:15:05;21.12;52.49
67093;SHT31;54011;50.772;7.730;2022-09-09T14:17:31;21.12;53.37
67093;SHT31;54011;50.772;7.730;2022-09-09T14:19:57;20.75;57.68
67093;SHT31;54011;50.772;7.730;2022-09-09T14:22:23;20.08;60.56
67093;SHT31;54011;50.772;7.730;2022-09-09T14:24:49;19.15;64.72
67093;SHT31;54011;50.772;7.730;2022-09-09T14:27:16;18.32;69.20
67093;SHT31;54011;50.772;7.730;2022-09-09T14:29:45;17.83;73.40
67093;SHT31;54011;50.772;7.730;2022-09-09T14:32:11;17.70;76.64
67093;SHT31;54011;50.772;7.730;2022-09-09T14:34:37;17.35;78.70
67093;SHT31;54011;50.772;7.730;2022-09-09T14:37:04;17.22;79.74
67093;SHT31;54011;50.772;7.730;2022-09-09T14:39:30;17.20;82.17
67093;SHT31;54011;50.772;7.730;2022-09-09T14:41:57;17.36;82.58
67093;SHT31;54011;50.772;7.730;2022-09-09T14:44:23;17.49;81.40
67093;SHT31;54011;50.772;7.730;2022-09-09T14:46:48;17.74;81.77
67093;SHT31;54011;50.772;7.730;2022-09-09T14:49:16;17.98;79.39
67093;SHT31;54011;50.772;7.730;2022-09-09T14:51:42;18.01;80.09
67093;SHT31;54011;50.772;7.730;2022-09-09T14:54:07;18.22;81.01
67093;SHT31;54011;50.772;7.730;2022-09-09T14:56:35;18.42;78.75
67093;SHT31;54011;50.772;7.730;2022-09-09T14:59:00;19.30;72.90
67093;SHT31;54011;50.772;7.730;2022-09-09T15:01:27;20.70;70.17
67093;SHT31;54011;50.772;7.730;2022-09-09T15:04:02;22.48;67.55
67093;SHT31;54011;50.772;7.730;2022-09-09T15:06:30;22.37;69.07
67093;SHT31;54011;50.772;7.730;2022-09-09T15:08:58;21.01;69.36
67093;SHT31;54011;50.772;7.730;2022-09-09T15:11:31;20.71;69.69
67093;SHT31;54011;50.772;7.730;2022-09-09T15:13:59;20.06;75.17
67093;SHT31;54011;50.772;7.730;2022-09-09T15:16:27;19.79;73.37
67093;SHT31;54011;50.772;7.730;2022-09-09T15:18:56;20.19;72.03
67093;SHT31;54011;50.772;7.730;2022-09-09T15:21:23;20.16;71.85
67093;SHT31;54011;50.772;7.730;2022-09-09T15:23:49;19.54;75.35
67093;SHT31;54011;50.772;7.730;2022-09-09T15:26:15;19.08;74.25
67093;SHT31;54011;50.772;7.730;2022-09-09T15:28:44;18.52;76.28
67093;SHT31;54011;50.772;7.730;2022-09-09T15:31:11;18.49;79.57
67093;SHT31;54011;50.772;7.730;2022-09-09T15:33:37;18.46;77.07
67093;SHT31;54011;50.772;7.730;2022-09-09T15:36:33;18.29;77.60
67093;SHT31;54011;50.772;7.730;2022-09-09T15:38:59;18.22;77.83
67093;SHT31;54011;50.772;7.730;2022-09-09T15:41:25;18.18;76.52
67093;SHT31;54011;50.772;7.730;2022-09-09T15:43:53;18.00;78.07
67093;SHT31;54011;50.772;7.730;2022-09-09T15:46:43;18.00;79.66
67093;SHT31;54011;50.772;7.730;2022-09-09T15:49:14;17.91;78.33
67093;SHT31;54011;50.772;7.730;2022-09-09T15:51:45;17.81;78.23
67093;SHT31;54011;50.772;7.730;2022-09-09T15:54:16;17.71;79.71
67093;SHT31;54011;50.772;7.730;2022-09-09T15:56:46;17.69;81.07
67093;SHT31;54011;50.772;7.730;2022-09-09T15:59:14;17.59;80.49
67093;SHT31;54011;50.772;7.730;2022-09-09T16:01:40;17.67;80.37
67093;SHT31;54011;50.772;7.730;2022-09-09T16:04:07;17.42;80.95
67093;SHT31;54011;50.772;7.730;2022-09-09T16:06:33;17.23;81.94
67093;SHT31;54011;50.772;7.730;2022-09-09T16:08:59;16.91;82.32
67093;SHT31;54011;50.772;7.730;2022-09-09T16:11:44;16.91;82.96
67093;SHT31;54011;50.772;7.730;2022-09-09T16:14:10;16.71;83.01
67093;SHT31;54011;50.772;7.730;2022-09-09T16:16:36;16.60;82.81
67093;SHT31;54011;50.772;7.730;2022-09-09T16:19:12;16.68;83.22
67093;SHT31;54011;50.772;7.730;2022-09-09T16:21:41;16.75;83.51
67093;SHT31;54011;50.772;7.730;2022-09-09T16:24:08;16.58;82.85
67093;SHT31;54011;50.772;7.730;2022-09-09T16:26:35;16.45;83.10
67093;SHT31;54011;50.772;7.730;2022-09-09T16:29:01;16.48;83.31
67093;SHT31;54011;50.772;7.730;2022-09-09T16:31:28;16.41;84.05
67093;SHT31;54011;50.772;7.730;2022-09-09T16:33:54;16.44;83.76
67093;SHT31;54011;50.772;7.730;2022-09-09T16:36:22;16.27;83.22
67093;SHT31;54011;50.772;7.730;2022-09-09T16:38:51;16.24;83.09
67093;SHT31;54011;50.772;7.730;2022-09-09T16:41:18;16.28;83.60
67093;SHT31;54011;50.772;7.730;2022-09-09T16:43:45;16.26;84.15
67093;SHT31;54011;50.772;7.730;2022-09-09T16:46:15;16.13;84.23
67093;SHT31;54011;50.772;7.730;2022-09-09T16:48:42;16.12;84.86
67093;SHT31;54011;50.772;7.730;2022-09-09T16:51:13;16.26;84.21
67093;SHT31;54011;50.772;7.730;2022-09-09T16:53:39;16.06;84.04
67093;SHT31;54011;50.772;7.730;2022-09-09T16:56:10;16.06;84.93
67093;SHT31;54011;50.772;7.730;2022-09-09T16:58:35;16.10;84.56
67093;SHT31;54011;50.772;7.730;2022-09-09T17:01:03;15.92;85.64
67093;SHT31;54011;50.772;7.730;2022-09-09T17:03:29;16.03;85.49
67093;SHT31;54011;50.772;7.730;2022-09-09T17:05:55;16.17;85.21
67093;SHT31;54011;50.772;7.730;2022-09-09T17:08:24;16.00;85.65
67093;SHT31;54011;50.772;7.730;2022-09-09T17:10:49;15.87;86.50
67093;SHT31;54011;50.772;7.730;2022-09-09T17:13:15;15.90;86.85
67093;SHT31;54011;50.772;7.730;2022-09-09T17:15:44;15.83;87.39
67093;SHT31;54011;50.772;7.730;2022-09-09T17:18:12;15.69;87.33
67093;SHT31;54011;50.772;7.730;2022-09-09T17:20:41;15.85;86.82
67093;SHT31;54011;50.772;7.730;2022-09-09T17:23:08;15.87;86.77
67093;SHT31;54011;50.772;7.730;2022-09-09T17:25:34;15.82;87.40
67093;SHT31;54011;50.772;7.730;2022-09-09T17:28:00;15.86;87.42
67093;SHT31;54011;50.772;7.730;2022-09-09T17:30:30;15.76;87.42
67093;SHT31;54011;50.772;7.730;2022-09-09T17:32:59;15.78;87.94
67093;SHT31;54011;50.772;7.730;2022-09-09T17:35:24;15.69;87.83
67093;SHT31;54011;50.772;7.730;2022-09-09T17:37:49;15.76;88.43
67093;SHT31;54011;50.772;7.730;2022-09-09T17:40:15;15.82;88.40